Terminal Aerodrome Forecast
Issued by NWS Wakefield, VA

Current Version | Previous Version | Text Only | Print | Product List | Glossary On
Versions: 1 2 3 4 5 6 7 8 9 10 11 12 13 14 15 16
000
FTUS41 KAKQ 160800 AAA
TAFRIC
TAF AMD
KRIC 160831Z 1609/1706 20003KT P6SM BKN009 BKN024 BKN070
      TEMPO 1609/1612 5SM BR BKN005
     FM161200 27003KT 5SM BR BKN015 BKN060
     FM161400 35006KT P6SM SCT040 BKN080
     FM162100 03005KT P6SM BKN100=

USA.gov is the U.S. government's official web portal to all federal, state and local government web resources and services.